Manuel Gual — 3FZC8 — position and weather

sailwx.info

Track history (hours):
 
Tides and Currents Weather Stations Pressure Air Temp Water Temp Dewpoint Dewpoint Depression Visibility Wind Speed Wind Dir Waves Ship Positions

Manuel Gual

Last reported at 2017-Nov-17 22:59 UTC. Time now 2017-Nov-17 23:15 UTC.
Position N 59°54' E 030°14'.

Length 654 m; draft 5.9 m.

Type: Ship. MMSI: 352997000.

Date/timePositionNaut miles runAvg speedWind from/ knotsBaromVisibWave heightAir tempDewpointWater temp
2017-Nov-17 22:59N 59°54' E 030°14'0 0.0
2017-Nov-17 22:29N 59°54' E 030°14'0 0.0
2017-Nov-17 21:58N 59°54' E 030°14'0 0.0
2017-Nov-17 21:28N 59°54' E 030°14'0 0.0
2017-Nov-17 20:58N 59°54' E 030°14'0 0.0
2017-Nov-17 20:28N 59°54' E 030°14'0 0.0
2017-Nov-17 20:00N 59°54' E 030°14'0 0.0
2017-Nov-17 19:30N 59°54' E 030°14'0 0.0
2017-Nov-17 19:00N 59°54' E 030°14'0 0.0
2017-Nov-17 18:30N 59°54' E 030°14'0 0.0
2017-Nov-17 18:00N 59°54' E 030°14'0 0.0
2017-Nov-17 17:29N 59°54' E 030°14'0 0.0
2017-Nov-17 16:59N 59°54' E 030°14'0 0.0
2017-Nov-17 16:29N 59°54' E 030°14'0 0.0
2017-Nov-17 15:59N 59°54' E 030°14'0 0.0
2017-Nov-17 15:29N 59°54' E 030°14'0 0.0
2017-Nov-17 14:58N 59°54' E 030°14'0 0.0
2017-Nov-17 14:28N 59°54' E 030°14'0 0.0
2017-Nov-17 13:58N 59°54' E 030°14'0 0.0
2017-Nov-17 13:25N 59°54' E 030°14'0 0.0
2017-Nov-17 13:00N 59°54' E 030°14'0 0.0
2017-Nov-17 12:30N 59°54' E 030°14'0 0.0
2017-Nov-17 12:00N 59°54' E 030°14'0 0.0
2017-Nov-17 11:30N 59°54' E 030°14'0 0.0
2017-Nov-17 11:00N 59°54' E 030°14'0 0.0
2017-Nov-17 10:30N 59°54' E 030°14'1 1.3
2017-Nov-17 10:00N 59°53' E 030°13'0 0.8
2017-Nov-17 09:30N 59°53' E 030°14'0 0.0
2017-Nov-17 09:00N 59°53' E 030°14'0 0.0
2017-Nov-17 08:30N 59°53' E 030°14'0 0.0
2017-Nov-17 08:00N 59°53' E 030°14'0 0.0
2017-Nov-17 07:30N 59°53' E 030°14'0 0.0
2017-Nov-17 07:00N 59°53' E 030°14'0 0.0
2017-Nov-17 06:30N 59°53' E 030°14'0 0.0
2017-Nov-17 06:00N 59°53' E 030°14'0 0.0
2017-Nov-17 05:30N 59°53' E 030°14'0 0.0
2017-Nov-17 05:00N 59°53' E 030°14'0 0.0
2017-Nov-17 04:30N 59°53' E 030°14'0 0.0
2017-Nov-17 04:00N 59°53' E 030°14'0 0.0
2017-Nov-17 03:30N 59°53' E 030°14'0 0.0
2017-Nov-17 03:00N 59°53' E 030°14'0 0.0
2017-Nov-17 02:30N 59°53' E 030°14'0 0.0
2017-Nov-17 02:00N 59°53' E 030°14'0 0.0
2017-Nov-17 01:30N 59°53' E 030°14'0 0.0
2017-Nov-17 01:00N 59°53' E 030°14'0 0.0
2017-Nov-17 00:30N 59°53' E 030°14'0 0.0
2017-Nov-17 00:00N 59°53' E 030°14'0 0.0
2017-Nov-16 23:30N 59°53' E 030°14'0 0.0
2017-Nov-16 23:00N 59°53' E 030°14'0 0.0
2017-Nov-16 22:30N 59°53' E 030°14'0 0.0
2017-Nov-16 22:00N 59°53' E 030°14'0 0.0
2017-Nov-16 21:30N 59°53' E 030°14'0 0.0
2017-Nov-16 21:00N 59°53' E 030°14'0 0.0
2017-Nov-16 20:30N 59°53' E 030°14'0 0.0
2017-Nov-16 20:00N 59°53' E 030°14'0 0.0
2017-Nov-16 19:30N 59°53' E 030°14'0 0.0
2017-Nov-16 19:00N 59°53' E 030°14'0 0.0
2017-Nov-16 18:30N 59°53' E 030°14'0 0.0
2017-Nov-16 18:00N 59°53' E 030°14'0 0.0
2017-Nov-16 17:30N 59°53' E 030°14'0 0.0
2017-Nov-16 17:00N 59°53' E 030°14'0 0.0
2017-Nov-16 16:30N 59°53' E 030°14'0 0.0
2017-Nov-16 16:00N 59°53' E 030°14'0 0.0
2017-Nov-16 15:30N 59°53' E 030°14'1 2.0
2017-Nov-16 15:00N 59°54' E 030°15'1 2.2
2017-Nov-16 14:30N 59°55' E 030°17'2 3.7
2017-Nov-16 13:59N 59°56' E 030°20'4 7.8
2017-Nov-16 13:30N 59°53' E 030°14'76149.5
2017-Nov-16 12:59N 60°37' E 032°18'76158.0
2017-Nov-16 12:30N 59°53' E 030°14'0 0.0
2017-Nov-16 12:00N 59°53' E 030°14'0 0.0
2017-Nov-16 11:30N 59°53' E 030°14'0 0.0
2017-Nov-16 11:00N 59°53' E 030°14'0 0.0
2017-Nov-16 10:30N 59°53' E 030°14'0 0.0
2017-Nov-16 10:00N 59°53' E 030°14'0 0.0
2017-Nov-16 09:30N 59°53' E 030°14'0 0.0
2017-Nov-16 09:00N 59°53' E 030°14'0 0.0
2017-Nov-16 08:30N 59°53' E 030°14'0 0.0
2017-Nov-16 08:00N 59°53' E 030°14'0 0.0
2017-Nov-16 07:30N 59°53' E 030°14'0 0.0
2017-Nov-16 07:00N 59°53' E 030°14'0 0.0
2017-Nov-16 06:30N 59°53' E 030°14'0 0.0
2017-Nov-16 06:00N 59°53' E 030°14'0 0.0
2017-Nov-16 05:30N 59°53' E 030°14'0 0.0
2017-Nov-16 05:00N 59°53' E 030°14'0 0.0
2017-Nov-16 04:30N 59°53' E 030°14'0 0.0
2017-Nov-16 04:00N 59°53' E 030°14'0 0.0
2017-Nov-16 03:30N 59°53' E 030°14'0 0.0
2017-Nov-16 03:00N 59°53' E 030°14'0 0.0
2017-Nov-16 02:30N 59°53' E 030°14'0 0.0
2017-Nov-16 02:00N 59°53' E 030°14'0 0.0
2017-Nov-16 01:30N 59°53' E 030°14'0 0.0
2017-Nov-16 01:00N 59°53' E 030°14'0 0.0
2017-Nov-16 00:30N 59°53' E 030°14'0 0.0
2017-Nov-16 00:00N 59°53' E 030°14'0 0.0
2017-Nov-15 23:30N 59°53' E 030°14'0 0.0
2017-Nov-15 23:00N 59°53' E 030°14'0 0.0
2017-Nov-15 22:30N 59°53' E 030°14'0 0.0
2017-Nov-15 22:00N 59°53' E 030°14'0 0.0
2017-Nov-15 21:30N 59°53' E 030°14'0 0.0
2017-Nov-15 21:00N 59°53' E 030°14'0 0.0
2017-Nov-15 20:30N 59°53' E 030°14'0 0.0
2017-Nov-15 20:00N 59°53' E 030°14'0 0.0
2017-Nov-15 19:30N 59°53' E 030°14'0 0.0
2017-Nov-15 19:00N 59°53' E 030°14'0 0.0
2017-Nov-15 18:30N 59°53' E 030°14'0 0.0
2017-Nov-15 18:00N 59°53' E 030°14'0 0.0
2017-Nov-15 17:30N 59°53' E 030°14'0 0.0
2017-Nov-15 17:00N 59°53' E 030°14'0 0.0
2017-Nov-15 16:30N 59°53' E 030°14'0 0.0
2017-Nov-15 16:00N 59°53' E 030°14'0 0.0
2017-Nov-15 15:30N 59°53' E 030°14'0 0.0
2017-Nov-15 15:00N 59°53' E 030°14'0 0.0
2017-Nov-15 14:30N 59°53' E 030°14'0 0.0
2017-Nov-15 14:00N 59°53' E 030°14'0 0.0
2017-Nov-15 13:30N 59°53' E 030°14'0 0.0
2017-Nov-15 13:00N 59°53' E 030°14'0 0.0
2017-Nov-15 12:30N 59°53' E 030°14'0 0.0
2017-Nov-15 12:00N 59°53' E 030°14'0 0.0
2017-Nov-15 11:30N 59°53' E 030°14'0 0.0
2017-Nov-15 11:00N 59°53' E 030°14'0 0.0
2017-Nov-15 10:30N 59°53' E 030°14'0 0.0
2017-Nov-15 10:00N 59°53' E 030°14'0 0.0
2017-Nov-15 09:30N 59°53' E 030°14'0 0.0
2017-Nov-15 09:00N 59°53' E 030°14'0 0.0
2017-Nov-15 08:30N 59°53' E 030°14'0 0.0
2017-Nov-15 08:00N 59°53' E 030°14'0 0.0
2017-Nov-15 07:30N 59°53' E 030°14'0 0.0
2017-Nov-15 07:00N 59°53' E 030°14'0 0.0
2017-Nov-15 06:30N 59°53' E 030°14'0 0.0
2017-Nov-15 06:00N 59°53' E 030°14'0 0.0
2017-Nov-15 05:30N 59°53' E 030°14'0 0.0
2017-Nov-15 05:00N 59°53' E 030°14'0 0.0
2017-Nov-15 04:30N 59°53' E 030°14'0 0.0
2017-Nov-15 04:00N 59°53' E 030°14'0 0.0
2017-Nov-15 03:30N 59°53' E 030°14'0 0.0
2017-Nov-15 03:00N 59°53' E 030°14'0 0.0
2017-Nov-15 02:30N 59°53' E 030°14'0 0.0
2017-Nov-15 02:00N 59°53' E 030°14'0 0.0
2017-Nov-15 01:30N 59°53' E 030°14'0 0.0
2017-Nov-15 01:00N 59°53' E 030°14'0 0.0
2017-Nov-15 00:30N 59°53' E 030°14'0 0.0
2017-Nov-15 00:00N 59°53' E 030°14'0 0.0
2017-Nov-14 23:30N 59°53' E 030°14'0 0.0
2017-Nov-14 23:00N 59°53' E 030°14'0 0.0
2017-Nov-14 22:30N 59°53' E 030°14'0 0.0
2017-Nov-14 22:00N 59°53' E 030°14'0 0.0
2017-Nov-14 21:30N 59°53' E 030°14'0 0.0
2017-Nov-14 21:00N 59°53' E 030°14'0 0.0
2017-Nov-14 20:30N 59°53' E 030°14'0 0.0
2017-Nov-14 20:00N 59°53' E 030°14'0 0.0
2017-Nov-14 19:30N 59°53' E 030°14'0 0.0
2017-Nov-14 19:00N 59°53' E 030°14'0 0.0
2017-Nov-14 18:30N 59°53' E 030°14'0 0.0
2017-Nov-14 18:00N 59°53' E 030°14'0 0.0
2017-Nov-14 17:30N 59°53' E 030°14'0 0.0
2017-Nov-14 17:00N 59°53' E 030°14'0 0.0
2017-Nov-14 16:30N 59°53' E 030°14'0 0.0
2017-Nov-14 16:00N 59°53' E 030°14'0 0.0
2017-Nov-14 15:30N 59°53' E 030°14'0 0.0
2017-Nov-14 15:00N 59°53' E 030°14'0 0.0
2017-Nov-14 14:30N 59°53' E 030°14'0 0.0
2017-Nov-14 14:00N 59°53' E 030°14'0 0.0
2017-Nov-14 13:30N 59°53' E 030°14'0 0.0
2017-Nov-14 13:00N 59°53' E 030°14'0 0.0
2017-Nov-14 12:30N 59°53' E 030°14'0 0.0
2017-Nov-14 12:00N 59°53' E 030°14'0 0.0
2017-Nov-14 11:30N 59°53' E 030°14'0 0.0
2017-Nov-14 11:00N 59°53' E 030°14'0 0.0
2017-Nov-14 10:30N 59°53' E 030°14'0 0.0
2017-Nov-14 10:00N 59°53' E 030°14'0 0.0
2017-Nov-14 09:30N 59°53' E 030°14'0 0.0
2017-Nov-14 09:00N 59°53' E 030°14'0 0.0
2017-Nov-14 08:30N 59°53' E 030°14'0 0.0
2017-Nov-14 08:00N 59°53' E 030°14'0 0.0
2017-Nov-14 07:31N 59°53' E 030°14'0 0.0
2017-Nov-14 07:00N 59°53' E 030°14'0 0.0
2017-Nov-14 06:30N 59°53' E 030°14'0 0.0
2017-Nov-14 06:00N 59°53' E 030°14'0 0.0
2017-Nov-14 05:30N 59°53' E 030°14'0 0.0
2017-Nov-14 05:00N 59°53' E 030°14'0 0.0
2017-Nov-14 04:30N 59°53' E 030°14'0 0.0
2017-Nov-14 04:01N 59°53' E 030°14'0 0.0
2017-Nov-14 03:30N 59°53' E 030°14'0 0.0
2017-Nov-14 03:01N 59°53' E 030°14'0 0.0
2017-Nov-14 02:30N 59°53' E 030°14'0 0.0
2017-Nov-14 02:00N 59°53' E 030°14'0 0.0
2017-Nov-14 01:31N 59°53' E 030°14'0 0.0
2017-Nov-14 01:00N 59°53' E 030°14'0 0.0
2017-Nov-14 00:30N 59°53' E 030°14'0 0.0
2017-Nov-14 00:00N 59°53' E 030°14'0 0.0
2017-Nov-13 23:30N 59°53' E 030°14'0 0.0
2017-Nov-13 23:00N 59°53' E 030°14'0 0.0
2017-Nov-13 22:30N 59°53' E 030°14'0 0.0
2017-Nov-13 22:00N 59°53' E 030°14'0 0.0
2017-Nov-13 02:01N 59°53' E 030°14'0 0.0
2017-Nov-13 01:31N 59°53' E 030°14'0 0.0
2017-Nov-13 01:00N 59°53' E 030°14'0 0.0
2017-Nov-13 00:30N 59°53' E 030°14'0 0.0
2017-Nov-13 00:00N 59°53' E 030°14'0 0.0
2017-Nov-12 23:31N 59°53' E 030°14'0 0.0
2017-Nov-12 23:01N 59°53' E 030°14'0 0.0
2017-Nov-12 22:30N 59°53' E 030°14'0 0.0
2017-Nov-12 22:00N 59°53' E 030°14'0 0.0
2017-Nov-12 21:30N 59°53' E 030°14'0 0.0
2017-Nov-12 21:00N 59°53' E 030°14'0 0.0
2017-Nov-12 20:30N 59°53' E 030°14'0 0.0
2017-Nov-12 20:01N 59°53' E 030°14'0 0.0
2017-Nov-12 19:31N 59°53' E 030°14'0 0.0
2017-Nov-12 19:00N 59°53' E 030°14'0 0.0
2017-Nov-12 18:31N 59°53' E 030°14'0 0.0
2017-Nov-12 18:01N 59°53' E 030°14'0 0.0
2017-Nov-12 17:30N 59°53' E 030°14'0 0.0
2017-Nov-12 17:01N 59°53' E 030°14'0 0.0
2017-Nov-12 16:31N 59°53' E 030°14'0 0.0
2017-Nov-12 16:00N 59°53' E 030°14'0 0.0
2017-Nov-12 15:31N 59°53' E 030°14'0 0.0
2017-Nov-12 15:01N 59°53' E 030°14'0 0.0
2017-Nov-12 14:31N 59°53' E 030°14'0 0.0
2017-Nov-12 14:01N 59°53' E 030°14'0 0.0
2017-Nov-12 13:30N 59°53' E 030°14'0 0.0
2017-Nov-12 13:01N 59°53' E 030°14'0 0.0
2017-Nov-12 12:31N 59°53' E 030°14'0 0.0
2017-Nov-12 12:01N 59°53' E 030°14'0 0.0
2017-Nov-12 11:30N 59°53' E 030°14'0 0.0
2017-Nov-12 11:01N 59°53' E 030°14'0 0.0
2017-Nov-12 10:31N 59°53' E 030°14'0 0.0
2017-Nov-12 10:00N 59°53' E 030°14'0 0.0
2017-Nov-12 09:31N 59°53' E 030°14'0 0.0
2017-Nov-12 09:01N 59°53' E 030°14'0 0.0
2017-Nov-12 08:31N 59°53' E 030°14'0 0.0
2017-Nov-12 08:01N 59°53' E 030°14'0 0.0
2017-Nov-12 07:31N 59°53' E 030°14'0 0.0
2017-Nov-12 07:01N 59°53' E 030°14'0 0.0
2017-Nov-12 06:31N 59°53' E 030°14'0 0.0
2017-Nov-12 06:00N 59°53' E 030°14'0 0.0
2017-Nov-12 05:31N 59°53' E 030°14'0 0.0
2017-Nov-12 05:01N 59°53' E 030°14'0 0.0
2017-Nov-12 04:31N 59°53' E 030°14'0 0.0
2017-Nov-12 04:01N 59°53' E 030°14'0 0.0
2017-Nov-12 03:31N 59°53' E 030°14'0 0.0
2017-Nov-12 03:00N 59°53' E 030°14'0 0.0
2017-Nov-12 02:30N 59°53' E 030°14'0 0.0
2017-Nov-12 02:00N 59°53' E 030°14'0 0.0
2017-Nov-12 01:30N 59°53' E 030°14'0 0.0
2017-Nov-12 01:01N 59°53' E 030°14'0 0.0
2017-Nov-12 00:31N 59°53' E 030°14'0 0.0
2017-Nov-12 00:00N 59°53' E 030°14'0 0.0
2017-Nov-11 23:30N 59°53' E 030°14'0 0.0
2017-Nov-11 23:00N 59°53' E 030°14'0 0.0
2017-Nov-11 22:30N 59°53' E 030°14'0 0.0
2017-Nov-11 22:00N 59°53' E 030°14'0 0.0
2017-Nov-11 21:30N 59°53' E 030°14'0 0.0
2017-Nov-11 21:01N 59°53' E 030°14'0 0.0
2017-Nov-11 20:30N 59°53' E 030°14'0 0.0
2017-Nov-11 20:01N 59°53' E 030°14'0 0.0
2017-Nov-11 19:31N 59°53' E 030°14'0 0.0
2017-Nov-11 19:00N 59°53' E 030°14'0 0.0
2017-Nov-11 18:30N 59°53' E 030°14'0 0.0
2017-Nov-11 18:00N 59°53' E 030°14'0 0.0
2017-Nov-11 17:31N 59°53' E 030°14'0 0.0
2017-Nov-11 17:00N 59°53' E 030°14'0 0.0
2017-Nov-11 16:30N 59°53' E 030°14'0 0.0
2017-Nov-11 16:01N 59°53' E 030°14'0 0.0
2017-Nov-11 15:30N 59°53' E 030°14'0 0.0
2017-Nov-11 15:00N 59°53' E 030°14'0 0.0
2017-Nov-11 14:30N 59°53' E 030°14'0 0.0
2017-Nov-11 14:01N 59°53' E 030°14'0 0.0
2017-Nov-11 13:31N 59°53' E 030°14'0 0.0
2017-Nov-11 13:00N 59°53' E 030°14'0 0.0
2017-Nov-11 12:31N 59°53' E 030°14'0 0.0
2017-Nov-11 12:00N 59°53' E 030°14'0 0.0
2017-Nov-11 11:30N 59°53' E 030°14'0 0.0
2017-Nov-11 11:00N 59°53' E 030°14'0 0.0
2017-Nov-11 10:31N 59°53' E 030°14'0 0.0
2017-Nov-11 10:01N 59°53' E 030°14'0 0.0
2017-Nov-11 09:30N 59°53' E 030°14'0 0.0
2017-Nov-11 09:01N 59°53' E 030°14'0 0.0
2017-Nov-11 08:31N 59°53' E 030°14'0 0.0
2017-Nov-11 08:00N 59°53' E 030°14'0 0.0
2017-Nov-11 07:31N 59°53' E 030°14'0 0.0
2017-Nov-11 07:00N 59°53' E 030°14'0 0.0
2017-Nov-11 06:30N 59°53' E 030°14'0 0.0
2017-Nov-11 06:00N 59°53' E 030°14'0 0.0
2017-Nov-11 05:30N 59°53' E 030°14'0 0.0
2017-Nov-11 05:00N 59°53' E 030°14'0 0.0
2017-Nov-11 04:30N 59°53' E 030°14'0 0.0
2017-Nov-11 04:00N 59°53' E 030°14'0 0.0
2017-Nov-11 03:30N 59°53' E 030°14'0 0.0
2017-Nov-11 03:00N 59°53' E 030°14'0 0.0
2017-Nov-11 02:31N 59°53' E 030°14'0 0.0
2017-Nov-11 02:00N 59°53' E 030°14'0 0.0
2017-Nov-11 01:31N 59°53' E 030°14'0 0.0
2017-Nov-11 01:00N 59°53' E 030°14'0 0.0
2017-Nov-11 00:30N 59°53' E 030°14'0 0.0
2017-Nov-11 00:00N 59°53' E 030°14'0 0.0
2017-Nov-10 23:30N 59°53' E 030°14'0 0.0
2017-Nov-10 23:01N 59°53' E 030°14'0 0.0
2017-Nov-10 22:31N 59°53' E 030°14'0 0.0
2017-Nov-10 22:00N 59°53' E 030°14'0 0.0
2017-Nov-10 21:30N 59°53' E 030°14'0 0.0
2017-Nov-10 21:00N 59°53' E 030°14'0 0.0
2017-Nov-10 20:31N 59°53' E 030°14'0 0.0
2017-Nov-10 20:01N 59°53' E 030°14'0 0.0
2017-Nov-10 19:30N 59°53' E 030°14'0 0.0
2017-Nov-10 19:01N 59°53' E 030°14'0 0.0
2017-Nov-10 18:30N 59°53' E 030°14'0 0.0
2017-Nov-10 18:00N 59°53' E 030°14'0 0.0
2017-Nov-10 17:30N 59°53' E 030°14'0 0.0
2017-Nov-10 17:00N 59°53' E 030°14'0 0.0
2017-Nov-10 16:30N 59°53' E 030°14'0 0.0
2017-Nov-10 16:00N 59°53' E 030°14'0 0.8
2017-Nov-10 15:30N 59°53' E 030°13'2 4.2
2017-Nov-10 15:00N 59°53' E 030°09'4 8.4
2017-Nov-10 14:30N 59°55' E 030°01'611.3
2017-Nov-10 14:00N 59°57' E 029°51'510.6
2017-Nov-10 13:30N 59°60' E 029°41'9 0.3
2017-Nov-09 09:29N 60°01' E 029°23'0 0.0
2017-Nov-08 20:32N 60°01' E 029°23'0 0.0
2017-Nov-08 20:22N 60°01' E 029°23'0 0.0
2017-Nov-08 19:59N 60°01' E 029°23'0 0.0
2017-Nov-08 19:21N 60°01' E 029°23'0 0.0
2017-Nov-08 18:59N 60°01' E 029°23'0 0.0
2017-Nov-08 18:14N 60°01' E 029°23'0 0.0
2017-Nov-08 17:52N 60°01' E 029°23'0 0.0
2017-Nov-08 17:25N 60°01' E 029°23'0 0.0
2017-Nov-08 16:58N 60°01' E 029°23'0 0.1
2017-Nov-08 16:30N 60°01' E 029°23'0 0.0
2017-Nov-08 16:00N 60°01' E 029°23'0 0.0
2017-Nov-08 15:24N 60°01' E 029°23'0 0.0
2017-Nov-08 05:26N 60°01' E 029°23'0 0.0
2017-Nov-08 04:07N 60°01' E 029°23'0 0.0
2017-Nov-08 03:08N 60°01' E 029°23'  
Track history (hours):
 
Tides and Currents Weather Stations Pressure Air Temp Water Temp Dewpoint Dewpoint Depression Visibility Wind Speed Wind Dir Waves Ship Positions

Manuel Gual

Last reported at 2017-Nov-17 22:59 UTC. Time now 2017-Nov-17 23:15 UTC.
Position N 59°54' E 030°14'.

Length 654 m; draft 5.9 m.

Type: Ship. MMSI: 352997000.

Date/timePositionNaut miles runAvg speedWind from/ knotsBaromVisibWave heightAir tempDewpointWater temp
2017-Nov-17 22:59N 59°54' E 030°14'0 0.0
2017-Nov-17 22:29N 59°54' E 030°14'0 0.0
2017-Nov-17 21:58N 59°54' E 030°14'0 0.0
2017-Nov-17 21:28N 59°54' E 030°14'0 0.0
2017-Nov-17 20:58N 59°54' E 030°14'0 0.0
2017-Nov-17 20:28N 59°54' E 030°14'0 0.0
2017-Nov-17 20:00N 59°54' E 030°14'0 0.0
2017-Nov-17 19:30N 59°54' E 030°14'0 0.0
2017-Nov-17 19:00N 59°54' E 030°14'0 0.0
2017-Nov-17 18:30N 59°54' E 030°14'0 0.0
2017-Nov-17 18:00N 59°54' E 030°14'0 0.0
2017-Nov-17 17:29N 59°54' E 030°14'0 0.0
2017-Nov-17 16:59N 59°54' E 030°14'0 0.0
2017-Nov-17 16:29N 59°54' E 030°14'0 0.0
2017-Nov-17 15:59N 59°54' E 030°14'0 0.0
2017-Nov-17 15:29N 59°54' E 030°14'0 0.0
2017-Nov-17 14:58N 59°54' E 030°14'0 0.0
2017-Nov-17 14:28N 59°54' E 030°14'0 0.0
2017-Nov-17 13:58N 59°54' E 030°14'0 0.0
2017-Nov-17 13:25N 59°54' E 030°14'0 0.0
2017-Nov-17 13:00N 59°54' E 030°14'0 0.0
2017-Nov-17 12:30N 59°54' E 030°14'0 0.0
2017-Nov-17 12:00N 59°54' E 030°14'0 0.0
2017-Nov-17 11:30N 59°54' E 030°14'0 0.0
2017-Nov-17 11:00N 59°54' E 030°14'0 0.0
2017-Nov-17 10:30N 59°54' E 030°14'1 1.3
2017-Nov-17 10:00N 59°53' E 030°13'0 0.8
2017-Nov-17 09:30N 59°53' E 030°14'0 0.0
2017-Nov-17 09:00N 59°53' E 030°14'0 0.0
2017-Nov-17 08:30N 59°53' E 030°14'0 0.0
2017-Nov-17 08:00N 59°53' E 030°14'0 0.0
2017-Nov-17 07:30N 59°53' E 030°14'0 0.0
2017-Nov-17 07:00N 59°53' E 030°14'0 0.0
2017-Nov-17 06:30N 59°53' E 030°14'0 0.0
2017-Nov-17 06:00N 59°53' E 030°14'0 0.0
2017-Nov-17 05:30N 59°53' E 030°14'0 0.0
2017-Nov-17 05:00N 59°53' E 030°14'0 0.0
2017-Nov-17 04:30N 59°53' E 030°14'0 0.0
2017-Nov-17 04:00N 59°53' E 030°14'0 0.0
2017-Nov-17 03:30N 59°53' E 030°14'0 0.0
2017-Nov-17 03:00N 59°53' E 030°14'0 0.0
2017-Nov-17 02:30N 59°53' E 030°14'0 0.0
2017-Nov-17 02:00N 59°53' E 030°14'0 0.0
2017-Nov-17 01:30N 59°53' E 030°14'0 0.0
2017-Nov-17 01:00N 59°53' E 030°14'0 0.0
2017-Nov-17 00:30N 59°53' E 030°14'0 0.0
2017-Nov-17 00:00N 59°53' E 030°14'0 0.0
2017-Nov-16 23:30N 59°53' E 030°14'0 0.0
2017-Nov-16 23:00N 59°53' E 030°14'0 0.0
2017-Nov-16 22:30N 59°53' E 030°14'0 0.0
2017-Nov-16 22:00N 59°53' E 030°14'0 0.0
2017-Nov-16 21:30N 59°53' E 030°14'0 0.0
2017-Nov-16 21:00N 59°53' E 030°14'0 0.0
2017-Nov-16 20:30N 59°53' E 030°14'0 0.0
2017-Nov-16 20:00N 59°53' E 030°14'0 0.0
2017-Nov-16 19:30N 59°53' E 030°14'0 0.0
2017-Nov-16 19:00N 59°53' E 030°14'0 0.0
2017-Nov-16 18:30N 59°53' E 030°14'0 0.0
2017-Nov-16 18:00N 59°53' E 030°14'0 0.0
2017-Nov-16 17:30N 59°53' E 030°14'0 0.0
2017-Nov-16 17:00N 59°53' E 030°14'0 0.0
2017-Nov-16 16:30N 59°53' E 030°14'0 0.0
2017-Nov-16 16:00N 59°53' E 030°14'0 0.0
2017-Nov-16 15:30N 59°53' E 030°14'1 2.0
2017-Nov-16 15:00N 59°54' E 030°15'1 2.2
2017-Nov-16 14:30N 59°55' E 030°17'2 3.7
2017-Nov-16 13:59N 59°56' E 030°20'4 7.8
2017-Nov-16 13:30N 59°53' E 030°14'76149.5
2017-Nov-16 12:59N 60°37' E 032°18'76158.0
2017-Nov-16 12:30N 59°53' E 030°14'0 0.0
2017-Nov-16 12:00N 59°53' E 030°14'0 0.0
2017-Nov-16 11:30N 59°53' E 030°14'0 0.0
2017-Nov-16 11:00N 59°53' E 030°14'0 0.0
2017-Nov-16 10:30N 59°53' E 030°14'0 0.0
2017-Nov-16 10:00N 59°53' E 030°14'0 0.0
2017-Nov-16 09:30N 59°53' E 030°14'0 0.0
2017-Nov-16 09:00N 59°53' E 030°14'0 0.0
2017-Nov-16 08:30N 59°53' E 030°14'0 0.0
2017-Nov-16 08:00N 59°53' E 030°14'0 0.0
2017-Nov-16 07:30N 59°53' E 030°14'0 0.0
2017-Nov-16 07:00N 59°53' E 030°14'0 0.0
2017-Nov-16 06:30N 59°53' E 030°14'0 0.0
2017-Nov-16 06:00N 59°53' E 030°14'0 0.0
2017-Nov-16 05:30N 59°53' E 030°14'0 0.0
2017-Nov-16 05:00N 59°53' E 030°14'0 0.0
2017-Nov-16 04:30N 59°53' E 030°14'0 0.0
2017-Nov-16 04:00N 59°53' E 030°14'0 0.0
2017-Nov-16 03:30N 59°53' E 030°14'0 0.0
2017-Nov-16 03:00N 59°53' E 030°14'0 0.0
2017-Nov-16 02:30N 59°53' E 030°14'0 0.0
2017-Nov-16 02:00N 59°53' E 030°14'0 0.0
2017-Nov-16 01:30N 59°53' E 030°14'0 0.0
2017-Nov-16 01:00N 59°53' E 030°14'0 0.0
2017-Nov-16 00:30N 59°53' E 030°14'0 0.0
2017-Nov-16 00:00N 59°53' E 030°14'0 0.0
2017-Nov-15 23:30N 59°53' E 030°14'0 0.0
2017-Nov-15 23:00N 59°53' E 030°14'0 0.0
2017-Nov-15 22:30N 59°53' E 030°14'0 0.0
2017-Nov-15 22:00N 59°53' E 030°14'0 0.0
2017-Nov-15 21:30N 59°53' E 030°14'0 0.0
2017-Nov-15 21:00N 59°53' E 030°14'0 0.0
2017-Nov-15 20:30N 59°53' E 030°14'0 0.0
2017-Nov-15 20:00N 59°53' E 030°14'0 0.0
2017-Nov-15 19:30N 59°53' E 030°14'0 0.0
2017-Nov-15 19:00N 59°53' E 030°14'0 0.0
2017-Nov-15 18:30N 59°53' E 030°14'0 0.0
2017-Nov-15 18:00N 59°53' E 030°14'0 0.0
2017-Nov-15 17:30N 59°53' E 030°14'0 0.0
2017-Nov-15 17:00N 59°53' E 030°14'0 0.0
2017-Nov-15 16:30N 59°53' E 030°14'0 0.0
2017-Nov-15 16:00N 59°53' E 030°14'0 0.0
2017-Nov-15 15:30N 59°53' E 030°14'0 0.0
2017-Nov-15 15:00N 59°53' E 030°14'0 0.0
2017-Nov-15 14:30N 59°53' E 030°14'0 0.0
2017-Nov-15 14:00N 59°53' E 030°14'0 0.0
2017-Nov-15 13:30N 59°53' E 030°14'0 0.0
2017-Nov-15 13:00N 59°53' E 030°14'0 0.0
2017-Nov-15 12:30N 59°53' E 030°14'0 0.0
2017-Nov-15 12:00N 59°53' E 030°14'0 0.0
2017-Nov-15 11:30N 59°53' E 030°14'0 0.0
2017-Nov-15 11:00N 59°53' E 030°14'0 0.0
2017-Nov-15 10:30N 59°53' E 030°14'0 0.0
2017-Nov-15 10:00N 59°53' E 030°14'0 0.0
2017-Nov-15 09:30N 59°53' E 030°14'0 0.0
2017-Nov-15 09:00N 59°53' E 030°14'0 0.0
2017-Nov-15 08:30N 59°53' E 030°14'0 0.0
2017-Nov-15 08:00N 59°53' E 030°14'0 0.0
2017-Nov-15 07:30N 59°53' E 030°14'0 0.0
2017-Nov-15 07:00N 59°53' E 030°14'0 0.0
2017-Nov-15 06:30N 59°53' E 030°14'0 0.0
2017-Nov-15 06:00N 59°53' E 030°14'0 0.0
2017-Nov-15 05:30N 59°53' E 030°14'0 0.0
2017-Nov-15 05:00N 59°53' E 030°14'0 0.0
2017-Nov-15 04:30N 59°53' E 030°14'0 0.0
2017-Nov-15 04:00N 59°53' E 030°14'0 0.0
2017-Nov-15 03:30N 59°53' E 030°14'0 0.0
2017-Nov-15 03:00N 59°53' E 030°14'0 0.0
2017-Nov-15 02:30N 59°53' E 030°14'0 0.0
2017-Nov-15 02:00N 59°53' E 030°14'0 0.0
2017-Nov-15 01:30N 59°53' E 030°14'0 0.0
2017-Nov-15 01:00N 59°53' E 030°14'0 0.0
2017-Nov-15 00:30N 59°53' E 030°14'0 0.0
2017-Nov-15 00:00N 59°53' E 030°14'0 0.0
2017-Nov-14 23:30N 59°53' E 030°14'0 0.0
2017-Nov-14 23:00N 59°53' E 030°14'0 0.0
2017-Nov-14 22:30N 59°53' E 030°14'0 0.0
2017-Nov-14 22:00N 59°53' E 030°14'0 0.0
2017-Nov-14 21:30N 59°53' E 030°14'0 0.0
2017-Nov-14 21:00N 59°53' E 030°14'0 0.0
2017-Nov-14 20:30N 59°53' E 030°14'0 0.0
2017-Nov-14 20:00N 59°53' E 030°14'0 0.0
2017-Nov-14 19:30N 59°53' E 030°14'0 0.0
2017-Nov-14 19:00N 59°53' E 030°14'0 0.0
2017-Nov-14 18:30N 59°53' E 030°14'0 0.0
2017-Nov-14 18:00N 59°53' E 030°14'0 0.0
2017-Nov-14 17:30N 59°53' E 030°14'0 0.0
2017-Nov-14 17:00N 59°53' E 030°14'0 0.0
2017-Nov-14 16:30N 59°53' E 030°14'0 0.0
2017-Nov-14 16:00N 59°53' E 030°14'0 0.0
2017-Nov-14 15:30N 59°53' E 030°14'0 0.0
2017-Nov-14 15:00N 59°53' E 030°14'0 0.0
2017-Nov-14 14:30N 59°53' E 030°14'0 0.0
2017-Nov-14 14:00N 59°53' E 030°14'0 0.0
2017-Nov-14 13:30N 59°53' E 030°14'0 0.0
2017-Nov-14 13:00N 59°53' E 030°14'0 0.0
2017-Nov-14 12:30N 59°53' E 030°14'0 0.0
2017-Nov-14 12:00N 59°53' E 030°14'0 0.0
2017-Nov-14 11:30N 59°53' E 030°14'0 0.0
2017-Nov-14 11:00N 59°53' E 030°14'0 0.0
2017-Nov-14 10:30N 59°53' E 030°14'0 0.0
2017-Nov-14 10:00N 59°53' E 030°14'0 0.0
2017-Nov-14 09:30N 59°53' E 030°14'0 0.0
2017-Nov-14 09:00N 59°53' E 030°14'0 0.0
2017-Nov-14 08:30N 59°53' E 030°14'0 0.0
2017-Nov-14 08:00N 59°53' E 030°14'0 0.0
2017-Nov-14 07:31N 59°53' E 030°14'0 0.0
2017-Nov-14 07:00N 59°53' E 030°14'0 0.0
2017-Nov-14 06:30N 59°53' E 030°14'0 0.0
2017-Nov-14 06:00N 59°53' E 030°14'0 0.0
2017-Nov-14 05:30N 59°53' E 030°14'0 0.0
2017-Nov-14 05:00N 59°53' E 030°14'0 0.0
2017-Nov-14 04:30N 59°53' E 030°14'0 0.0
2017-Nov-14 04:01N 59°53' E 030°14'0 0.0
2017-Nov-14 03:30N 59°53' E 030°14'0 0.0
2017-Nov-14 03:01N 59°53' E 030°14'0 0.0
2017-Nov-14 02:30N 59°53' E 030°14'0 0.0
2017-Nov-14 02:00N 59°53' E 030°14'0 0.0
2017-Nov-14 01:31N 59°53' E 030°14'0 0.0
2017-Nov-14 01:00N 59°53' E 030°14'0 0.0
2017-Nov-14 00:30N 59°53' E 030°14'0 0.0
2017-Nov-14 00:00N 59°53' E 030°14'0 0.0
2017-Nov-13 23:30N 59°53' E 030°14'0 0.0
2017-Nov-13 23:00N 59°53' E 030°14'0 0.0
2017-Nov-13 22:30N 59°53' E 030°14'0 0.0
2017-Nov-13 22:00N 59°53' E 030°14'0 0.0
2017-Nov-13 02:01N 59°53' E 030°14'0 0.0
2017-Nov-13 01:31N 59°53' E 030°14'0 0.0
2017-Nov-13 01:00N 59°53' E 030°14'0 0.0
2017-Nov-13 00:30N 59°53' E 030°14'0 0.0
2017-Nov-13 00:00N 59°53' E 030°14'0 0.0
2017-Nov-12 23:31N 59°53' E 030°14'0 0.0
2017-Nov-12 23:01N 59°53' E 030°14'0 0.0
2017-Nov-12 22:30N 59°53' E 030°14'0 0.0
2017-Nov-12 22:00N 59°53' E 030°14'0 0.0
2017-Nov-12 21:30N 59°53' E 030°14'0 0.0
2017-Nov-12 21:00N 59°53' E 030°14'0 0.0
2017-Nov-12 20:30N 59°53' E 030°14'0 0.0
2017-Nov-12 20:01N 59°53' E 030°14'0 0.0
2017-Nov-12 19:31N 59°53' E 030°14'0 0.0
2017-Nov-12 19:00N 59°53' E 030°14'0 0.0
2017-Nov-12 18:31N 59°53' E 030°14'0 0.0
2017-Nov-12 18:01N 59°53' E 030°14'0 0.0
2017-Nov-12 17:30N 59°53' E 030°14'0 0.0
2017-Nov-12 17:01N 59°53' E 030°14'0 0.0
2017-Nov-12 16:31N 59°53' E 030°14'0 0.0
2017-Nov-12 16:00N 59°53' E 030°14'0 0.0
2017-Nov-12 15:31N 59°53' E 030°14'0 0.0
2017-Nov-12 15:01N 59°53' E 030°14'0 0.0
2017-Nov-12 14:31N 59°53' E 030°14'0 0.0
2017-Nov-12 14:01N 59°53' E 030°14'0 0.0
2017-Nov-12 13:30N 59°53' E 030°14'0 0.0
2017-Nov-12 13:01N 59°53' E 030°14'0 0.0
2017-Nov-12 12:31N 59°53' E 030°14'0 0.0
2017-Nov-12 12:01N 59°53' E 030°14'0 0.0
2017-Nov-12 11:30N 59°53' E 030°14'0 0.0
2017-Nov-12 11:01N 59°53' E 030°14'0 0.0
2017-Nov-12 10:31N 59°53' E 030°14'0 0.0
2017-Nov-12 10:00N 59°53' E 030°14'0 0.0
2017-Nov-12 09:31N 59°53' E 030°14'0 0.0
2017-Nov-12 09:01N 59°53' E 030°14'0 0.0
2017-Nov-12 08:31N 59°53' E 030°14'0 0.0
2017-Nov-12 08:01N 59°53' E 030°14'0 0.0
2017-Nov-12 07:31N 59°53' E 030°14'0 0.0
2017-Nov-12 07:01N 59°53' E 030°14'0 0.0
2017-Nov-12 06:31N 59°53' E 030°14'0 0.0
2017-Nov-12 06:00N 59°53' E 030°14'0 0.0
2017-Nov-12 05:31N 59°53' E 030°14'0 0.0
2017-Nov-12 05:01N 59°53' E 030°14'0 0.0
2017-Nov-12 04:31N 59°53' E 030°14'0 0.0
2017-Nov-12 04:01N 59°53' E 030°14'0 0.0
2017-Nov-12 03:31N 59°53' E 030°14'0 0.0
2017-Nov-12 03:00N 59°53' E 030°14'0 0.0
2017-Nov-12 02:30N 59°53' E 030°14'0 0.0
2017-Nov-12 02:00N 59°53' E 030°14'0 0.0
2017-Nov-12 01:30N 59°53' E 030°14'0 0.0
2017-Nov-12 01:01N 59°53' E 030°14'0 0.0
2017-Nov-12 00:31N 59°53' E 030°14'0 0.0
2017-Nov-12 00:00N 59°53' E 030°14'0 0.0
2017-Nov-11 23:30N 59°53' E 030°14'0 0.0
2017-Nov-11 23:00N 59°53' E 030°14'0 0.0
2017-Nov-11 22:30N 59°53' E 030°14'0 0.0
2017-Nov-11 22:00N 59°53' E 030°14'0 0.0
2017-Nov-11 21:30N 59°53' E 030°14'0 0.0
2017-Nov-11 21:01N 59°53' E 030°14'0 0.0
2017-Nov-11 20:30N 59°53' E 030°14'0 0.0
2017-Nov-11 20:01N 59°53' E 030°14'0 0.0
2017-Nov-11 19:31N 59°53' E 030°14'0 0.0
2017-Nov-11 19:00N 59°53' E 030°14'0 0.0
2017-Nov-11 18:30N 59°53' E 030°14'0 0.0
2017-Nov-11 18:00N 59°53' E 030°14'0 0.0
2017-Nov-11 17:31N 59°53' E 030°14'0 0.0
2017-Nov-11 17:00N 59°53' E 030°14'0 0.0
2017-Nov-11 16:30N 59°53' E 030°14'0 0.0
2017-Nov-11 16:01N 59°53' E 030°14'0 0.0
2017-Nov-11 15:30N 59°53' E 030°14'0 0.0
2017-Nov-11 15:00N 59°53' E 030°14'0 0.0
2017-Nov-11 14:30N 59°53' E 030°14'0 0.0
2017-Nov-11 14:01N 59°53' E 030°14'0 0.0
2017-Nov-11 13:31N 59°53' E 030°14'0 0.0
2017-Nov-11 13:00N 59°53' E 030°14'0 0.0
2017-Nov-11 12:31N 59°53' E 030°14'0 0.0
2017-Nov-11 12:00N 59°53' E 030°14'0 0.0
2017-Nov-11 11:30N 59°53' E 030°14'0 0.0
2017-Nov-11 11:00N 59°53' E 030°14'0 0.0
2017-Nov-11 10:31N 59°53' E 030°14'0 0.0
2017-Nov-11 10:01N 59°53' E 030°14'0 0.0
2017-Nov-11 09:30N 59°53' E 030°14'0 0.0
2017-Nov-11 09:01N 59°53' E 030°14'0 0.0
2017-Nov-11 08:31N 59°53' E 030°14'0 0.0
2017-Nov-11 08:00N 59°53' E 030°14'0 0.0
2017-Nov-11 07:31N 59°53' E 030°14'0 0.0
2017-Nov-11 07:00N 59°53' E 030°14'0 0.0
2017-Nov-11 06:30N 59°53' E 030°14'0 0.0
2017-Nov-11 06:00N 59°53' E 030°14'0 0.0
2017-Nov-11 05:30N 59°53' E 030°14'0 0.0
2017-Nov-11 05:00N 59°53' E 030°14'0 0.0
2017-Nov-11 04:30N 59°53' E 030°14'0 0.0
2017-Nov-11 04:00N 59°53' E 030°14'0 0.0
2017-Nov-11 03:30N 59°53' E 030°14'0 0.0
2017-Nov-11 03:00N 59°53' E 030°14'0 0.0
2017-Nov-11 02:31N 59°53' E 030°14'0 0.0
2017-Nov-11 02:00N 59°53' E 030°14'0 0.0
2017-Nov-11 01:31N 59°53' E 030°14'0 0.0
2017-Nov-11 01:00N 59°53' E 030°14'0 0.0
2017-Nov-11 00:30N 59°53' E 030°14'0 0.0
2017-Nov-11 00:00N 59°53' E 030°14'0 0.0
2017-Nov-10 23:30N 59°53' E 030°14'0 0.0
2017-Nov-10 23:01N 59°53' E 030°14'0 0.0
2017-Nov-10 22:31N 59°53' E 030°14'0 0.0
2017-Nov-10 22:00N 59°53' E 030°14'0 0.0
2017-Nov-10 21:30N 59°53' E 030°14'0 0.0
2017-Nov-10 21:00N 59°53' E 030°14'0 0.0
2017-Nov-10 20:31N 59°53' E 030°14'0 0.0
2017-Nov-10 20:01N 59°53' E 030°14'0 0.0
2017-Nov-10 19:30N 59°53' E 030°14'0 0.0
2017-Nov-10 19:01N 59°53' E 030°14'0 0.0
2017-Nov-10 18:30N 59°53' E 030°14'0 0.0
2017-Nov-10 18:00N 59°53' E 030°14'0 0.0
2017-Nov-10 17:30N 59°53' E 030°14'0 0.0
2017-Nov-10 17:00N 59°53' E 030°14'0 0.0
2017-Nov-10 16:30N 59°53' E 030°14'0 0.0
2017-Nov-10 16:00N 59°53' E 030°14'0 0.8
2017-Nov-10 15:30N 59°53' E 030°13'2 4.2
2017-Nov-10 15:00N 59°53' E 030°09'4 8.4
2017-Nov-10 14:30N 59°55' E 030°01'611.3
2017-Nov-10 14:00N 59°57' E 029°51'510.6
2017-Nov-10 13:30N 59°60' E 029°41'9 0.3
2017-Nov-09 09:29N 60°01' E 029°23'0 0.0
2017-Nov-08 20:32N 60°01' E 029°23'0 0.0
2017-Nov-08 20:22N 60°01' E 029°23'0 0.0
2017-Nov-08 19:59N 60°01' E 029°23'0 0.0
2017-Nov-08 19:21N 60°01' E 029°23'0 0.0
2017-Nov-08 18:59N 60°01' E 029°23'0 0.0
2017-Nov-08 18:14N 60°01' E 029°23'0 0.0
2017-Nov-08 17:52N 60°01' E 029°23'0 0.0
2017-Nov-08 17:25N 60°01' E 029°23'0 0.0
2017-Nov-08 16:58N 60°01' E 029°23'0 0.1
2017-Nov-08 16:30N 60°01' E 029°23'0 0.0
2017-Nov-08 16:00N 60°01' E 029°23'0 0.0
2017-Nov-08 15:24N 60°01' E 029°23'0 0.0
2017-Nov-08 05:26N 60°01' E 029°23'0 0.0
2017-Nov-08 04:07N 60°01' E 029°23'0 0.0
2017-Nov-08 03:08N 60°01' E 029°23'  

Dump ship's entire track history